createdAt,value
2023-04-08T00:01:53.280Z,3.70
2023-04-08T00:06:56.382Z,4.00
2023-04-08T00:11:59.237Z,3.90
2023-04-08T00:17:01.914Z,4.13
2023-04-08T00:22:04.773Z,4.07
2023-04-08T00:27:07.393Z,4.10
2023-04-08T00:32:10.318Z,3.92
2023-04-08T00:37:13.520Z,4.10
2023-04-08T00:42:16.261Z,4.22
2023-04-08T00:47:18.942Z,3.67
2023-04-08T00:52:21.545Z,3.83
2023-04-08T00:57:24.175Z,4.13
2023-04-08T01:02:39.167Z,3.90
2023-04-08T01:07:47.196Z,4.20
2023-04-08T01:12:55.737Z,4.97
2023-04-08T01:18:00.732Z,4.05
2023-04-08T01:23:23.302Z,4.03
2023-04-08T01:28:29.645Z,3.20
2023-04-08T01:33:36.602Z,4.32
2023-04-08T01:38:40.067Z,4.38
2023-04-08T01:43:45.031Z,3.53
2023-04-08T01:48:49.040Z,3.80
2023-04-08T01:53:51.930Z,4.45
2023-04-08T01:58:58.938Z,4.10
2023-04-08T02:04:03.755Z,3.80
2023-04-08T02:09:06.445Z,4.10
2023-04-08T02:14:09.030Z,4.28
2023-04-08T02:19:20.268Z,4.55
2023-04-08T02:24:23.044Z,4.30
2023-04-08T02:29:29.458Z,4.35
2023-04-08T02:34:32.668Z,4.10
2023-04-08T02:39:36.894Z,4.53
2023-04-08T02:44:39.553Z,4.47
2023-04-08T02:49:42.118Z,4.38
2023-04-08T02:54:44.707Z,4.60
2023-04-08T02:59:47.257Z,4.95
2023-04-08T03:04:49.886Z,4.47
2023-04-08T03:09:52.910Z,4.47
2023-04-08T03:14:55.578Z,5.00
2023-04-08T03:19:58.528Z,5.22
2023-04-08T03:25:01.161Z,4.75
2023-04-08T03:30:05.921Z,4.68
2023-04-08T03:35:09.095Z,5.25
2023-04-08T03:40:12.286Z,5.18
2023-04-08T03:45:14.959Z,5.22
2023-04-08T03:50:17.593Z,5.13
2023-04-08T03:55:20.280Z,5.32
2023-04-08T04:00:23.075Z,5.22
2023-04-08T04:05:26.432Z,6.00
2023-04-08T04:10:29.127Z,5.80
2023-04-08T04:15:31.865Z,5.30
2023-04-08T04:20:34.515Z,7.53
2023-04-08T04:25:37.165Z,7.22
2023-04-08T04:30:40.416Z,6.78
2023-04-08T04:35:43.155Z,5.95
2023-04-08T04:40:46.225Z,6.22
2023-04-08T04:45:48.872Z,5.07
2023-04-08T04:50:56.153Z,5.40
2023-04-08T04:56:01.369Z,7.40
2023-04-08T05:01:03.981Z,5.88
2023-04-08T05:06:07.189Z,5.95
2023-04-08T05:11:11.398Z,6.07
2023-04-08T05:16:14.072Z,5.50
2023-04-08T05:21:16.684Z,7.00
2023-04-08T05:26:21.869Z,5.55
2023-04-08T05:31:24.910Z,6.45
2023-04-08T05:36:28.163Z,6.22
2023-04-08T05:41:30.994Z,5.60
2023-04-08T05:46:33.670Z,6.00
2023-04-08T05:51:36.242Z,5.93
2023-04-08T05:56:39.114Z,6.15
2023-04-08T06:01:41.895Z,6.63
2023-04-08T06:06:44.673Z,6.22
2023-04-08T06:11:49.367Z,6.05
2023-04-08T06:16:54.874Z,6.03
2023-04-08T06:21:59.168Z,5.00
2023-04-08T06:27:03.448Z,6.45
2023-04-08T06:32:06.670Z,6.82
2023-04-08T06:37:09.623Z,6.55
2023-04-08T06:42:12.451Z,5.38
2023-04-08T06:47:34.940Z,6.82
2023-04-08T06:52:37.564Z,5.65
2023-04-08T06:57:40.168Z,6.35
2023-04-08T07:02:42.933Z,6.30
2023-04-08T07:07:45.530Z,6.38
2023-04-08T07:12:48.479Z,6.15
2023-04-08T07:17:51.837Z,6.10
2023-04-08T07:22:54.460Z,6.38
2023-04-08T07:27:57.279Z,4.93
2023-04-08T07:33:01.066Z,5.70
2023-04-08T07:38:04.231Z,4.90
2023-04-08T07:43:06.930Z,4.70
2023-04-08T07:48:09.734Z,5.35
2023-04-08T07:53:12.417Z,4.25
2023-04-08T07:58:15.009Z,4.53
2023-04-08T08:03:17.749Z,4.07
2023-04-08T08:08:20.405Z,4.63
2023-04-08T08:13:23.005Z,8.20
2023-04-08T08:18:25.611Z,3.97
2023-04-08T08:23:28.166Z,4.10
2023-04-08T08:28:30.811Z,4.43
2023-04-08T08:33:34.126Z,4.43
2023-04-08T08:38:36.764Z,5.15
2023-04-08T08:43:39.568Z,5.38
2023-04-08T08:48:42.202Z,4.95
2023-04-08T08:53:45.774Z,5.68
2023-04-08T08:58:49.265Z,5.15
2023-04-08T09:04:25.027Z,4.55
2023-04-08T09:09:27.695Z,4.70
2023-04-08T09:14:30.472Z,4.72
2023-04-08T09:19:33.017Z,4.93
2023-04-08T09:24:37.292Z,5.47
2023-04-08T09:29:41.184Z,5.75
2023-04-08T09:34:43.775Z,5.57
2023-04-08T09:39:46.344Z,5.15
2023-04-08T09:44:49.040Z,4.60
2023-04-08T09:49:58.605Z,4.35
2023-04-08T09:55:09.310Z,4.35
2023-04-08T10:00:15.143Z,5.07
2023-04-08T10:05:19.400Z,4.13
2023-04-08T10:10:22.645Z,3.78
2023-04-08T10:15:32.680Z,3.90
2023-04-08T10:20:35.969Z,4.93
2023-04-08T10:25:39.500Z,4.68
2023-04-08T10:30:48.939Z,5.53
2023-04-08T10:35:59.646Z,6.00
2023-04-08T10:41:02.812Z,4.70
2023-04-08T10:46:05.704Z,5.03
2023-04-08T10:51:08.315Z,5.28
2023-04-08T10:56:17.011Z,6.35
2023-04-08T11:01:20.247Z,6.18
2023-04-08T11:06:23.563Z,6.38
2023-04-08T11:11:29.602Z,6.18
2023-04-08T11:16:32.802Z,6.25
2023-04-08T11:21:37.682Z,5.68
2023-04-08T11:26:41.081Z,6.45
2023-04-08T11:31:44.473Z,6.90
2023-04-08T11:36:47.310Z,6.63
2023-04-08T11:41:50.270Z,6.90
2023-04-08T11:46:57.411Z,6.60
2023-04-08T11:52:00.572Z,6.13
2023-04-08T11:57:03.681Z,6.40
2023-04-08T12:02:06.451Z,5.78
2023-04-08T12:07:10.883Z,6.18
2023-04-08T12:12:13.542Z,6.47
2023-04-08T12:17:16.414Z,5.13
2023-04-08T12:22:19.022Z,5.10
2023-04-08T12:27:21.602Z,6.00
2023-04-08T12:32:25.552Z,7.03
2023-04-08T12:37:28.684Z,6.50
2023-04-08T12:42:31.758Z,6.90
2023-04-08T12:47:34.471Z,9.02
2023-04-08T12:52:37.203Z,6.57
2023-04-08T12:57:39.906Z,6.95
2023-04-08T13:02:42.837Z,5.78
2023-04-08T13:07:46.273Z,7.97
2023-04-08T13:12:48.958Z,7.35
2023-04-08T13:17:51.772Z,6.35
2023-04-08T13:22:54.476Z,6.03
2023-04-08T13:27:58.598Z,6.00
2023-04-08T13:33:01.524Z,6.38
2023-04-08T13:38:04.247Z,5.70
2023-04-08T13:43:06.907Z,5.35
2023-04-08T13:48:09.697Z,6.10
2023-04-08T13:53:12.835Z,5.43
2023-04-08T13:58:23.424Z,5.75
2023-04-08T14:03:26.791Z,6.82
2023-04-08T14:08:29.364Z,5.97
2023-04-08T14:13:32.505Z,6.43
2023-04-08T14:18:35.131Z,6.35
2023-04-08T14:23:37.701Z,6.22
2023-04-08T14:28:40.520Z,6.13
2023-04-08T14:33:43.371Z,5.53
2023-04-08T14:38:46.208Z,5.30
2023-04-08T14:43:49.155Z,5.60
2023-04-08T14:48:51.887Z,5.85
2023-04-08T14:53:54.529Z,5.70
2023-04-08T14:58:57.130Z,5.30
2023-04-08T15:04:00.183Z,6.20
2023-04-08T15:09:03.777Z,5.35
2023-04-08T15:14:06.461Z,4.85
2023-04-08T15:19:09.270Z,5.35
2023-04-08T15:24:12.813Z,6.82
2023-04-08T15:29:15.651Z,7.20
2023-04-08T15:34:18.521Z,6.20
2023-04-08T15:39:23.938Z,7.95
2023-04-08T15:44:26.602Z,9.75
2023-04-08T15:49:29.179Z,8.70
2023-04-08T15:54:33.615Z,10.20
2023-04-08T15:59:36.848Z,8.98
2023-04-08T16:04:39.589Z,6.28
2023-04-08T16:09:42.365Z,8.73
2023-04-08T16:14:46.487Z,7.95
2023-04-08T16:19:51.807Z,9.25
2023-04-08T16:24:54.457Z,9.98
2023-04-08T16:29:57.615Z,10.80
2023-04-08T16:35:00.421Z,11.98
2023-04-08T16:40:03.868Z,14.23
2023-04-08T16:45:07.084Z,17.23
2023-04-08T16:50:09.966Z,16.90
2023-04-08T16:55:14.512Z,16.80
2023-04-08T17:00:19.652Z,15.30
2023-04-08T17:05:23.668Z,14.75
2023-04-08T17:10:26.359Z,32.85
2023-04-08T17:15:28.929Z,31.00
2023-04-08T17:20:31.633Z,32.30
2023-04-08T17:25:35.554Z,15.32
2023-04-08T17:30:39.786Z,15.13
2023-04-08T17:35:42.697Z,13.98
2023-04-08T17:40:46.555Z,16.10
2023-04-08T17:45:50.622Z,18.00
2023-04-08T17:51:02.880Z,16.23
2023-04-08T17:56:06.354Z,14.70
2023-04-08T18:01:08.999Z,14.85
2023-04-08T18:06:11.647Z,14.55
2023-04-08T18:11:14.424Z,14.32
2023-04-08T18:16:18.956Z,13.75
2023-04-08T18:21:22.237Z,13.00
2023-04-08T18:26:25.161Z,13.45
2023-04-08T18:31:27.888Z,11.60
2023-04-08T18:36:30.591Z,12.55
2023-04-08T18:41:33.238Z,11.27
2023-04-08T18:46:36.177Z,10.90
2023-04-08T18:51:42.164Z,10.98
2023-04-08T18:56:49.463Z,10.55
2023-04-08T19:01:52.302Z,10.05
2023-04-08T19:06:55.183Z,9.98
2023-04-08T19:11:57.911Z,10.27
2023-04-08T19:17:01.185Z,9.95
2023-04-08T19:22:05.972Z,11.25
2023-04-08T19:27:09.162Z,12.00
2023-04-08T19:32:12.661Z,10.65
2023-04-08T19:37:15.538Z,11.10
2023-04-08T19:42:19.366Z,11.40
2023-04-08T19:47:22.213Z,11.85
2023-04-08T19:52:25.114Z,11.57
2023-04-08T19:57:28.055Z,11.02
2023-04-08T20:02:31.545Z,10.63
2023-04-08T20:07:34.235Z,11.15
2023-04-08T20:12:36.846Z,12.23
2023-04-08T20:17:39.510Z,11.35
2023-04-08T20:22:42.135Z,11.65
2023-04-08T20:27:44.800Z,11.05
2023-04-08T20:32:47.553Z,11.95
2023-04-08T20:37:50.325Z,11.18
2023-04-08T20:42:52.936Z,11.25
2023-04-08T20:47:55.858Z,11.65
2023-04-08T20:52:59.068Z,10.50
2023-04-08T20:58:05.838Z,10.70
2023-04-08T21:03:08.654Z,10.60
2023-04-08T21:08:11.425Z,11.15
2023-04-08T21:13:14.063Z,11.50
2023-04-08T21:18:16.709Z,11.10
2023-04-08T21:23:19.285Z,10.52
2023-04-08T21:28:22.135Z,10.07
2023-04-08T21:33:24.729Z,9.80
2023-04-08T21:38:27.304Z,10.32
2023-04-08T21:43:30.019Z,10.05
2023-04-08T21:48:32.751Z,10.43
2023-04-08T21:53:35.478Z,10.20
2023-04-08T21:58:38.047Z,10.32
2023-04-08T22:03:40.719Z,11.43
2023-04-08T22:08:43.332Z,11.07
2023-04-08T22:13:46.040Z,10.57
2023-04-08T22:18:48.629Z,10.75
2023-04-08T22:23:51.525Z,11.18
2023-04-08T22:28:54.894Z,11.05
2023-04-08T22:33:57.712Z,11.02
2023-04-08T22:39:00.418Z,11.27
2023-04-08T22:44:03.120Z,11.38
2023-04-08T22:49:05.873Z,11.07
2023-04-08T22:54:08.582Z,12.10
2023-04-08T22:59:11.230Z,11.65
2023-04-08T23:04:13.929Z,11.10
2023-04-08T23:09:16.630Z,12.38
2023-04-08T23:14:19.231Z,12.55
2023-04-08T23:19:21.908Z,10.85
2023-04-08T23:24:24.449Z,11.80
2023-04-08T23:29:27.181Z,11.40
2023-04-08T23:34:29.772Z,11.15
2023-04-08T23:39:32.485Z,11.50
2023-04-08T23:44:35.090Z,11.15
2023-04-08T23:49:37.639Z,12.38
2023-04-08T23:54:40.373Z,12.05
2023-04-08T23:59:42.966Z,11.63
